Time;durP1;ratioP1;P1;durP2;ratioP2;P2;SDS_P1;SDS_P2;PMS_P1;PMS_P2;Temp;Humidity;BMP_temperature;BMP_pressure;BME280_temperature;BME280_humidity;BME280_pressure;Samples;Min_cycle;Max_cycle;Signal;HPM_P1;HPM_P2
2021/12/20 00:01:46;;;;;;;1999.90;999.90;;;;;;;2.61;100.00;163094.34;5031973;28;20037;-67
2021/12/20 00:04:12;;;;;;;1999.90;999.90;;;;;;;2.46;100.00;163053.28;5040905;28;20061;-68
2021/12/20 00:06:39;;;;;;;1999.90;999.90;;;;;;;2.43;100.00;163046.41;5037453;28;20077;-65
2021/12/20 00:09:06;;;;;;;1999.90;999.90;;;;;;;2.61;100.00;163093.00;5034847;28;20145;-66
2021/12/20 00:11:32;;;;;;;1999.90;999.90;;;;;;;2.58;100.00;163084.78;5040136;28;20084;-67
2021/12/20 00:13:59;;;;;;;1999.90;999.90;;;;;;;2.42;100.00;163043.66;5036997;28;20408;-66
2021/12/20 00:16:26;;;;;;;1999.90;999.90;;;;;;;2.55;100.00;163077.94;5032254;28;20041;-67
2021/12/20 00:18:52;;;;;;;1999.90;999.90;;;;;;;2.39;100.00;163034.09;5037168;28;20057;-67
2021/12/20 00:21:19;;;;;;;1999.90;999.90;;;;;;;2.39;100.00;163035.47;5040170;28;20091;-67
2021/12/20 00:23:45;;;;;;;1999.90;999.90;;;;;;;2.43;100.00;163045.06;5037771;28;20046;-67
2021/12/20 00:26:12;;;;;;;1999.90;999.90;;;;;;;2.41;100.00;163040.97;5032997;28;20073;-67
2021/12/20 00:28:39;;;;;;;1999.90;999.90;;;;;;;2.45;100.00;163051.88;5035708;28;20110;-67
2021/12/20 00:31:06;;;;;;;1999.90;999.90;;;;;;;2.27;100.00;163002.59;5039347;28;20141;-67
2021/12/20 00:33:34;;;;;;;1999.90;999.90;;;;;;;1.87;100.00;162895.81;5048213;28;20162;-67
2021/12/20 00:36:06;;;;;;;1999.90;999.90;;;;;;;1.88;100.00;162898.56;5040397;28;20088;-66
2021/12/20 00:41:20;;;;;;;1999.90;999.90;;;;;;;2.39;100.00;163034.09;5034422;28;20072;-67
2021/12/20 00:43:47;;;;;;;1999.90;999.90;;;;;;;2.38;100.00;163031.34;5043729;28;20053;-67
2021/12/20 00:46:13;;;;;;;1999.90;999.90;;;;;;;2.27;100.00;163002.59;5040898;28;20044;-67
2021/12/20 00:48:40;;;;;;;1999.90;999.90;;;;;;;1.94;100.00;162916.31;5032218;28;20333;-67
2021/12/20 00:51:07;;;;;;;1999.90;999.90;;;;;;;1.86;100.00;162893.06;5046428;28;20077;-66
2021/12/20 00:53:33;;;;;;;1999.90;999.90;;;;;;;2.17;100.00;162976.56;5044235;28;20126;-66
2021/12/20 00:56:00;;;;;;;1999.90;999.90;;;;;;;1.81;100.00;162879.38;5039604;28;20117;-66
2021/12/20 00:58:27;;;;;;;1999.90;999.90;;;;;;;1.96;100.00;162919.09;5040643;28;20123;-66
2021/12/20 01:00:58;;;;;;;1999.90;999.90;;;;;;;2.16;100.00;162972.47;5037940;28;20073;-66
2021/12/20 01:03:27;;;;;;;1999.90;999.90;;;;;;;2.35;100.00;163024.50;5045129;28;20132;-66
2021/12/20 01:05:53;;;;;;;1999.90;999.90;;;;;;;2.15;100.00;162969.75;5038035;28;20056;-66
2021/12/20 01:08:21;;;;;;;1999.90;999.90;;;;;;;1.90;100.00;162905.38;5043368;28;20073;-66
2021/12/20 05:53:51;;;;;;;1999.90;999.90;;;;;;;0.77;100.00;162602.94;5027575;28;20114;-66
2021/12/20 05:56:18;;;;;;;1999.90;999.90;;;;;;;0.68;100.00;162579.69;5040048;28;20077;-66
2021/12/20 05:58:45;;;;;;;1999.90;999.90;;;;;;;0.87;100.00;162630.31;5050358;28;20091;-66
2021/12/20 06:01:11;;;;;;;1999.90;999.90;;;;;;;0.86;100.00;162627.56;5045741;28;20137;-66
2021/12/20 06:03:38;;;;;;;1999.90;999.90;;;;;;;0.88;100.00;162634.41;5037843;28;20091;-66
2021/12/20 06:06:04;;;;;;;1999.90;999.90;;;;;;;0.84;100.00;162623.47;5038178;28;20049;-66
2021/12/20 06:08:31;;;;;;;1999.90;999.90;;;;;;;0.68;100.00;162581.03;5055643;28;20072;-65
2021/12/20 06:10:57;;;;;;;1999.90;999.90;;;;;;;0.85;100.00;162626.22;5039221;28;20484;-66
2021/12/20 06:13:24;;;;;;;1999.90;999.90;;;;;;;1.09;100.00;162687.75;5051291;28;20103;-66
2021/12/20 06:15:51;;;;;;;1999.90;999.90;;;;;;;0.83;100.00;162619.34;5039836;28;20053;-66
2021/12/20 06:18:17;;;;;;;1999.90;999.90;;;;;;;0.61;100.00;162561.94;5036946;28;20095;-66
2021/12/20 06:20:44;;;;;;;1999.90;999.90;;;;;;;0.48;100.00;162526.38;5046115;28;20050;-66
2021/12/20 06:23:12;;;;;;;1999.90;999.90;;;;;;;0.52;100.00;162538.69;5052618;28;20354;-66
2021/12/20 06:25:38;;;;;;;1999.90;999.90;;;;;;;0.68;100.00;162579.69;5045416;28;20080;-65
2021/12/20 06:28:05;;;;;;;1999.90;999.90;;;;;;;0.80;100.00;162611.16;5046542;28;20072;-66
2021/12/20 06:30:32;;;;;;;1999.90;999.90;;;;;;;0.80;100.00;162612.50;5055248;28;20102;-66
2021/12/20 06:32:58;;;;;;;1999.90;999.90;;;;;;;1.13;100.00;162698.72;5044606;28;20089;-66
2021/12/20 06:35:33;;;;;;;1999.90;999.90;;;;;;;1.21;100.00;162720.63;5048620;28;20053;-66
2021/12/20 06:38:01;;;;;;;1999.90;999.90;;;;;;;0.86;100.00;162627.56;5048069;28;20072;-66
2021/12/20 06:40:31;;;;;;;1999.90;999.90;;;;;;;1.01;100.00;162667.25;5060041;28;20125;-66
2021/12/20 06:42:57;;;;;;;1999.90;999.90;;;;;;;1.36;100.00;162760.31;5042745;28;20064;-66
2021/12/20 06:45:25;;;;;;;1999.90;999.90;;;;;;;1.17;100.00;162709.66;5055752;28;20052;-66
2021/12/20 06:47:52;;;;;;;1999.90;999.90;;;;;;;1.54;100.00;162808.19;5042140;28;20080;-66
2021/12/20 06:50:19;;;;;;;1999.90;999.90;;;;;;;1.36;100.00;162760.31;5038810;28;20061;-66
2021/12/20 06:52:45;;;;;;;1999.90;999.90;;;;;;;1.15;100.00;162704.22;5048186;28;20103;-66
2021/12/20 06:55:12;;;;;;;1999.90;999.90;;;;;;;1.14;100.00;162701.47;5042619;28;20410;-66
2021/12/20 06:57:40;;;;;;;1999.90;999.90;;;;;;;0.98;100.00;162659.03;5048681;28;20426;-66
2021/12/20 07:00:09;;;;;;;1999.90;999.90;;;;;;;0.69;100.00;162583.78;5041317;28;20111;-66
2021/12/20 07:02:36;;;;;;;1999.90;999.90;;;;;;;0.62;100.00;162564.63;5063245;28;20383;-66
2021/12/20 07:05:02;;;;;;;1999.90;999.90;;;;;;;0.53;100.00;162541.38;5045906;28;20045;-66
2021/12/20 07:07:29;;;;;;;1999.90;999.90;;;;;;;0.78;100.00;162605.69;5052059;28;20073;-66
2021/12/20 07:09:56;;;;;;;1999.90;999.90;;;;;;;0.79;100.00;162608.41;5050600;28;20425;-67
2021/12/20 07:12:23;;;;;;;1999.90;999.90;;;;;;;0.95;100.00;162652.19;5035934;28;20553;-66
2021/12/20 07:14:51;;;;;;;1999.90;999.90;;;;;;;0.73;100.00;162593.41;5042899;28;20149;-66
2021/12/20 07:17:19;;;;;;;1999.90;999.90;;;;;;;0.85;100.00;162626.22;5056898;28;20253;-66
2021/12/20 07:19:46;;;;;;;1999.90;999.90;;;;;;;0.78;100.00;162607.06;5047437;28;20325;-66
2021/12/20 07:22:13;;;;;;;1999.90;999.90;;;;;;;0.68;100.00;162579.69;5044571;28;20037;-67
2021/12/20 07:24:39;;;;;;;1999.90;999.90;;;;;;;0.93;100.00;162646.72;5050265;28;20295;-67
2021/12/20 07:27:09;;;;;;;1999.90;999.90;;;;;;;1.08;100.00;162685.06;5044758;28;20100;-67
2021/12/20 07:29:38;;;;;;;1999.90;999.90;;;;;;;0.92;100.00;162642.63;5046757;28;20333;-67
2021/12/20 07:32:05;;;;;;;1999.90;999.90;;;;;;;1.08;100.00;162685.06;5047782;28;20417;-67
2021/12/20 07:34:32;;;;;;;1999.90;999.90;;;;;;;0.88;100.00;162634.41;5053298;28;20392;-67
2021/12/20 07:36:58;;;;;;;1999.90;999.90;;;;;;;0.87;100.00;162630.31;5045052;28;20072;-67
2021/12/20 07:39:25;;;;;;;1999.90;999.90;;;;;;;0.84;100.00;162623.47;5053516;28;20075;-67
2021/12/20 07:41:51;;;;;;;1999.90;999.90;;;;;;;0.91;100.00;162641.28;5047716;28;20046;-67
2021/12/20 07:44:18;;;;;;;1999.90;999.90;;;;;;;0.75;100.00;162597.50;5045790;28;20103;-67
2021/12/20 07:46:45;;;;;;;1999.90;999.90;;;;;;;0.84;100.00;162622.09;5044794;28;20354;-67
2021/12/20 07:49:12;;;;;;;1999.90;999.90;;;;;;;0.67;100.00;162578.34;5039569;28;20047;-67
2021/12/20 07:51:39;;;;;;;1999.90;999.90;;;;;;;1.15;100.00;162704.22;5046226;28;20096;-67
2021/12/20 07:54:05;;;;;;;1999.90;999.90;;;;;;;1.28;100.00;162738.38;5051288;28;20088;-67
2021/12/20 07:56:32;;;;;;;1999.90;999.90;;;;;;;1.19;100.00;162716.53;5047208;28;20079;-67
2021/12/20 07:58:59;;;;;;;1999.90;999.90;;;;;;;0.59;100.00;162555.09;5038919;28;20402;-67
2021/12/20 08:01:27;;;;;;;1999.90;999.90;;;;;;;0.57;100.00;162550.97;5055500;28;20041;-67
2021/12/20 08:03:54;;;;;;;1999.90;999.90;;;;;;;0.91;100.00;162639.88;5047957;28;20052;-67
2021/12/20 08:06:21;;;;;;;1999.90;999.90;;;;;;;0.96;100.00;162654.94;5040309;28;20292;-67
2021/12/20 08:08:48;;;;;;;1999.90;999.90;;;;;;;0.61;100.00;162560.53;5036806;28;20091;-67
2021/12/20 08:11:15;;;;;;;1999.90;999.90;;;;;;;0.64;100.00;162568.72;5059553;28;20052;-67
2021/12/20 08:13:44;;;;;;;1999.90;999.90;;;;;;;1.03;100.00;162674.09;5039065;28;20422;-66
2021/12/20 08:16:15;;;;;;;1999.90;999.90;;;;;;;0.74;100.00;162594.75;5051665;28;20061;-66
2021/12/20 08:18:44;;;;;;;1999.90;999.90;;;;;;;0.76;100.00;162600.19;5042595;28;20101;-66
2021/12/20 08:21:13;;;;;;;1999.90;999.90;;;;;;;0.75;100.00;162597.50;5036102;28;20140;-66
2021/12/20 08:23:40;;;;;;;1999.90;999.90;;;;;;;0.81;100.00;162613.91;5050321;28;20049;-66
2021/12/20 08:26:08;;;;;;;1999.90;999.90;;;;;;;0.78;100.00;162605.69;5045874;28;20396;-65
2021/12/20 08:28:35;;;;;;;1999.90;999.90;;;;;;;0.98;100.00;162660.44;5047569;28;20094;-65
2021/12/20 08:31:03;;;;;;;1999.90;999.90;;;;;;;1.39;100.00;162769.88;5042257;28;20101;-66
2021/12/20 08:33:32;;;;;;;1999.90;999.90;;;;;;;0.67;100.00;162578.34;5057702;28;20040;-65
2021/12/20 08:36:00;;;;;;;1999.90;999.90;;;;;;;1.00;100.00;162665.88;5044741;28;20053;-65
2021/12/20 08:38:27;;;;;;;1999.90;999.90;;;;;;;1.36;100.00;162761.66;5048974;28;20433;-66
2021/12/20 08:40:59;;;;;;;;;;;;;;;0.98;100.00;162660.44;5051857;28;20090;-66
2021/12/20 08:43:27;;;;;;;1999.90;999.90;;;;;;;0.56;100.00;162546.88;5039293;28;20300;-66
2021/12/20 08:45:53;;;;;;;1999.90;999.90;;;;;;;0.77;100.00;162602.94;5049505;28;20128;-66
2021/12/20 08:48:20;;;;;;;1999.90;999.90;;;;;;;0.88;100.00;162634.41;5041577;28;20049;-66
2021/12/20 08:50:47;;;;;;;1999.90;999.90;;;;;;;0.92;100.00;162643.97;5051976;28;20051;-67
2021/12/20 08:53:14;;;;;;;1999.90;999.90;;;;;;;1.37;100.00;162764.41;5051867;28;20049;-67
2021/12/20 08:55:41;;;;;;;1999.90;999.90;;;;;;;0.99;100.00;162663.13;5055535;28;20085;-67
2021/12/20 08:58:08;;;;;;;1999.90;999.90;;;;;;;0.93;100.00;162646.72;5049814;28;20438;-67
2021/12/20 09:00:37;;;;;;;1999.90;999.90;;;;;;;1.10;100.00;162690.50;5050861;28;20175;-66
2021/12/20 09:03:04;;;;;;;1999.90;999.90;;;;;;;0.99;100.00;162661.78;5049550;28;20085;-67
2021/12/20 09:05:33;;;;;;;1999.90;999.90;;;;;;;1.08;100.00;162685.06;5050776;28;20075;-67
2021/12/20 09:08:02;;;;;;;1999.90;999.90;;;;;;;0.84;100.00;162622.09;5045769;28;20041;-67
2021/12/20 09:10:31;;;;;;;1999.90;999.90;;;;;;;1.15;100.00;162704.22;5059221;28;20357;-67
2021/12/20 09:12:58;;;;;;;1999.90;999.90;;;;;;;0.91;100.00;162641.28;5046860;28;20044;-67
2021/12/20 09:15:28;;;;;;;1999.90;999.90;;;;;;;0.79;100.00;162608.41;5045326;28;20102;-67
2021/12/20 09:17:55;;;;;;;1999.90;999.90;;;;;;;0.84;100.00;162622.09;5047944;28;20126;-67
2021/12/20 09:20:23;;;;;;;1999.90;999.90;;;;;;;0.85;100.00;162626.22;5043764;28;20106;-67
2021/12/20 09:22:57;;;;;;;1999.90;999.90;;;;;;;0.76;100.00;162600.19;5043656;28;20340;-67
2021/12/20 09:25:26;;;;;;;1999.90;999.90;;;;;;;0.85;100.00;162624.88;5047880;28;20049;-67
2021/12/20 09:27:54;;;;;;;1999.90;999.90;;;;;;;0.79;100.00;162608.41;5051238;28;20426;-67
2021/12/20 09:30:23;;;;;;;1999.90;999.90;;;;;;;0.80;100.00;162612.50;5043688;28;20053;-66
2021/12/20 09:32:50;;;;;;;1999.90;999.90;;;;;;;1.38;100.00;162767.13;5054281;28;20040;-66
2021/12/20 09:35:16;;;;;;;1999.90;999.90;;;;;;;1.24;100.00;162728.84;5052088;28;20063;-66
2021/12/20 09:37:46;;;;;;;1999.90;999.90;;;;;;;1.08;100.00;162685.06;5044815;28;20072;-65
2021/12/20 09:40:14;;;;;;;1999.90;999.90;;;;;;;1.04;100.00;162676.84;5052280;28;20515;-65
2021/12/20 09:42:49;;;;;;;1999.90;999.90;;;;;;;0.99;100.00;162663.13;5047341;28;20095;-66
2021/12/20 09:45:20;;;;;;;1999.90;999.90;;;;;;;1.40;100.00;162771.25;5056205;28;20052;-66
2021/12/20 09:47:47;;;;;;;;;;;;;;;1.51;100.00;162800.00;5045424;28;20084;-66
2021/12/20 09:50:15;;;;;;;1999.90;999.90;;;;;;;0.69;100.00;162582.44;5053526;28;19959;-67
2021/12/20 09:52:43;;;;;;;1999.90;999.90;;;;;;;1.01;100.00;162667.25;5039037;28;20127;-67
2021/12/20 09:55:11;;;;;;;1999.90;999.90;;;;;;;1.23;100.00;162726.06;5044392;28;20061;-65
2021/12/20 09:57:41;;;;;;;1999.90;999.90;;;;;;;1.13;100.00;162698.72;5049344;28;20115;-65
2021/12/20 10:00:10;;;;;;;1999.90;999.90;;;;;;;0.91;100.00;162641.28;5044025;28;20076;-65
2021/12/20 10:02:37;;;;;;;1999.90;999.90;;;;;;;1.06;100.00;162680.94;5046580;28;20099;-65
2021/12/20 10:05:05;;;;;;;1999.90;999.90;;;;;;;1.18;100.00;162712.41;5047257;28;20132;-66
2021/12/20 10:07:33;;;;;;;1999.90;999.90;;;;;;;0.88;100.00;162633.06;5054288;28;20087;-66
2021/12/20 10:10:00;;;;;;;1999.90;999.90;;;;;;;0.76;100.00;162600.19;5045548;28;20053;-65
2021/12/20 10:12:27;;;;;;;1999.90;999.90;;;;;;;0.85;100.00;162624.88;5053751;28;20110;-66
2021/12/20 10:15:09;;;;;;;1999.90;999.90;;;;;;;1.09;100.00;162687.75;5049623;28;20045;-66
2021/12/20 10:17:59;;;;;;;1999.90;999.90;;;;;;;1.00;100.00;162665.88;5035210;28;20045;-66
2021/12/20 10:20:31;;;;;;;1999.90;999.90;;;;;;;1.05;100.00;162679.53;5042240;28;20468;-66
2021/12/20 10:23:09;;;;;;;1999.90;999.90;;;;;;;1.02;100.00;162671.34;5053012;28;20041;-67
2021/12/20 10:25:36;;;;;;;1999.90;999.90;;;;;;;0.93;100.00;162646.72;5046621;28;20329;-66
2021/12/20 10:28:15;;;;;;;1999.90;999.90;;;;;;;1.34;100.00;162756.22;5040467;28;20053;-67
2021/12/20 10:30:45;;;;;;;1999.90;999.90;;;;;;;1.01;100.00;162668.63;5051192;28;20434;-66
2021/12/20 10:33:15;;;;;;;1999.90;999.90;;;;;;;1.13;100.00;162698.72;5045525;28;20049;-66
2021/12/20 10:35:50;;;;;;;1999.90;999.90;;;;;;;1.00;100.00;162665.88;5044103;28;20316;-65
2021/12/20 10:38:26;;;;;;;1999.90;999.90;;;;;;;1.34;100.00;162756.22;5048950;28;20056;-65
2021/12/20 10:41:14;;;;;;;1999.90;999.90;;;;;;;1.64;100.00;162835.59;5046835;28;20072;-66
2021/12/20 10:43:51;;;;;;;1999.90;999.90;;;;;;;1.33;100.00;162753.44;5050491;28;20040;-67
2021/12/20 10:46:39;;;;;;;1999.90;999.90;;;;;;;1.30;100.00;162745.25;5038533;28;20080;-66
2021/12/20 10:49:10;;;;;;;1999.90;999.90;;;;;;;0.52;100.00;162537.28;5043651;28;20041;-65
2021/12/20 10:51:39;;;;;;;1999.90;999.90;;;;;;;0.63;100.00;162567.38;5057572;28;20076;-66
2021/12/20 10:54:13;;;;;;;1999.90;999.90;;;;;;;0.83;100.00;162619.34;5047314;28;20044;-67
2021/12/20 10:56:53;;;;;;;1999.90;999.90;;;;;;;0.70;100.00;162585.19;5043639;28;20048;-66
2021/12/20 10:59:25;;;;;;;1999.90;999.90;;;;;;;0.45;100.00;162519.53;5047619;28;20099;-66
2021/12/20 11:04:25;;;;;;;1999.90;999.90;;;;;;;0.95;100.00;162650.81;5043629;28;20119;-67
2021/12/20 11:09:05;;;;;;;1999.90;999.90;;;;;;;0.62;100.00;162564.63;5049168;28;20041;-66
2021/12/20 11:10:00;;;;;;;1999.90;999.90;;;;;;;0.85;100.00;162626.22;5051630;28;20400;-66
2021/12/20 11:12:32;;;;;;;1999.90;999.90;;;;;;;0.75;100.00;162598.84;5050380;28;20057;-66
2021/12/20 11:15:03;;;;;;;1999.90;999.90;;;;;;;0.97;100.00;162657.69;5040789;28;20106;-67
2021/12/20 11:17:30;;;;;;;1999.90;999.90;;;;;;;1.03;100.00;162672.75;5044576;28;20045;-66
2021/12/20 11:19:58;;;;;;;1999.90;999.90;;;;;;;0.84;100.00;162622.09;5057858;28;20122;-66
2021/12/20 11:22:27;;;;;;;1999.90;999.90;;;;;;;0.58;100.00;162552.34;5042761;28;20103;-67
2021/12/20 11:25:00;;;;;;;1999.90;999.90;;;;;;;0.45;100.00;162518.16;5042457;28;20080;-66
2021/12/20 11:27:42;;;;;;;1999.90;999.90;;;;;;;0.87;100.00;162630.31;5053631;28;20154;-67
2021/12/20 11:30:16;;;;;;;1999.90;999.90;;;;;;;0.46;100.00;162520.88;5044788;28;20064;-66
2021/12/20 11:32:44;;;;;;;1999.90;999.90;;;;;;;0.69;100.00;162582.44;5045199;28;20430;-66
2021/12/20 11:35:14;;;;;;;1999.90;999.90;;;;;;;0.75;100.00;162598.84;5058385;28;20135;-66
2021/12/20 11:37:41;;;;;;;1999.90;999.90;;;;;;;1.15;100.00;162704.22;5041179;28;20052;-66
2021/12/20 11:40:11;;;;;;;1999.90;999.90;;;;;;;1.23;100.00;162727.44;5049246;28;20092;-66
2021/12/20 11:42:38;;;;;;;1999.90;999.90;;;;;;;0.86;100.00;162627.56;5045238;28;20049;-66
2021/12/20 11:45:07;;;;;;;1999.90;999.90;;;;;;;1.26;100.00;162734.28;5035505;28;20061;-66
2021/12/20 11:47:43;;;;;;;1999.90;999.90;;;;;;;1.63;100.00;162831.47;5040840;28;20053;-66
2021/12/20 11:50:14;;;;;;;1999.90;999.90;;;;;;;1.28;100.00;162739.78;5035016;28;20095;-66
2021/12/20 11:52:44;;;;;;;1999.90;999.90;;;;;;;1.35;100.00;162757.56;5050675;28;20041;-66
2021/12/20 11:55:20;;;;;;;1999.90;999.90;;;;;;;1.04;100.00;162676.84;5038776;28;20100;-66
2021/12/20 11:57:52;;;;;;;1999.90;999.90;;;;;;;0.85;100.00;162624.88;5053622;28;20443;-67
2021/12/20 12:00:26;;;;;;;1999.90;999.90;;;;;;;0.90;100.00;162638.53;5046566;28;20114;-65
2021/12/20 12:02:56;;;;;;;1999.90;999.90;;;;;;;0.88;100.00;162634.41;5039925;28;20114;-65
2021/12/20 12:05:37;;;;;;;1999.90;999.90;;;;;;;0.57;100.00;162550.97;5046535;28;20052;-66
2021/12/20 12:08:36;;;;;;;1999.90;999.90;;;;;;;0.71;100.00;162587.91;5060070;28;20053;-66
2021/12/20 12:11:08;;;;;;;1999.90;999.90;;;;;;;0.44;100.00;162515.41;5059219;28;20049;-67
2021/12/20 12:13:48;;;;;;;1999.90;999.90;;;;;;;0.81;100.00;162613.91;5044713;28;20056;-66
2021/12/20 12:16:28;;;;;;;1999.90;999.90;;;;;;;0.83;100.00;162620.75;5053264;28;20056;-66
2021/12/20 12:18:58;;;;;;;1999.90;999.90;;;;;;;0.80;100.00;162611.16;5039066;28;20099;-66
2021/12/20 12:21:39;;;;;;;1999.90;999.90;;;;;;;0.82;100.00;162616.59;5038203;28;20057;-67
2021/12/20 12:24:35;;;;;;;1999.90;999.90;;;;;;;0.69;100.00;162583.78;5049738;28;20048;-66
2021/12/20 12:27:20;;;;;;;1999.90;999.90;;;;;;;1.00;100.00;162665.88;5048068;28;20045;-67
2021/12/20 12:29:46;;;;;;;1999.90;999.90;;;;;;;1.12;100.00;162697.34;5046178;28;20450;-66
2021/12/20 12:32:13;;;;;;;1999.90;999.90;;;;;;;1.47;100.00;162790.38;5046954;28;20056;-66
2021/12/20 12:34:42;;;;;;;1999.90;999.90;;;;;;;1.13;100.00;162698.72;5053396;28;20081;-66
2021/12/20 12:37:23;;;;;;;1999.90;999.90;;;;;;;1.59;100.00;162821.88;5051914;28;20131;-67
2021/12/20 12:39:50;;;;;;;1999.90;999.90;;;;;;;1.46;100.00;162786.28;5051968;28;20049;-66
2021/12/20 12:42:17;;;;;;;1999.90;999.90;;;;;;;1.25;100.00;162731.59;5045624;28;20107;-67
2021/12/20 12:45:04;;;;;;;1999.90;999.90;;;;;;;1.07;100.00;162682.28;5058895;28;20056;-67
2021/12/20 12:47:36;;;;;;;1999.90;999.90;;;;;;;1.04;100.00;162676.84;5051000;28;20140;-66
2021/12/20 12:50:04;;;;;;;1999.90;999.90;;;;;;;1.42;100.00;162776.72;5040733;28;20045;-67
2021/12/20 12:52:33;;;;;;;1999.90;999.90;;;;;;;1.26;100.00;162734.28;5044078;28;20045;-67
2021/12/20 12:55:28;;;;;;;1999.90;999.90;;;;;;;0.92;100.00;162642.63;5049193;28;20052;-66
2021/12/20 12:57:54;;;;;;;1999.90;999.90;;;;;;;1.22;100.00;162723.31;5040986;28;20460;-66
2021/12/20 13:00:28;;;;;;;1999.90;999.90;;;;;;;0.84;100.00;162622.09;5049669;28;20072;-67
2021/12/20 13:03:06;;;;;;;1999.90;999.90;;;;;;;1.03;100.00;162674.09;5047328;28;20799;-67
2021/12/20 13:05:33;;;;;;;1999.90;999.90;;;;;;;1.31;100.00;162748.00;5047907;28;20137;-66
2021/12/20 13:08:02;;;;;;;1999.90;999.90;;;;;;;1.33;100.00;162753.44;5046321;28;20053;-66
2021/12/20 13:10:41;;;;;;;1999.90;999.90;;;;;;;0.86;100.00;162627.56;5046387;28;20110;-66
2021/12/20 13:13:22;;;;;;;1999.90;999.90;;;;;;;0.80;100.00;162611.16;5040436;28;20068;-66
2021/12/20 13:18:27;;;;;;;1999.90;999.90;;;;;;;1.27;100.00;162735.69;5047782;28;20045;-67
2021/12/20 13:23:25;;;;;;;1999.90;999.90;;;;;;;1.36;100.00;162760.31;5051537;28;20044;-67
2021/12/20 13:25:55;;;;;;;1999.90;999.90;;;;;;;0.99;100.00;162661.78;5045136;28;20106;-67
2021/12/20 13:28:23;;;;;;;1999.90;999.90;;;;;;;1.22;100.00;162723.31;5047940;28;20121;-67
2021/12/20 13:30:54;;;;;;;1999.90;999.90;;;;;;;0.84;100.00;162623.47;5044727;28;20058;-67
2021/12/20 13:33:30;;;;;;;1999.90;999.90;;;;;;;0.90;100.00;162638.53;5040624;28;20070;-67
2021/12/20 13:36:00;;;;;;;1999.90;999.90;;;;;;;0.99;100.00;162661.78;5043340;28;20357;-67
2021/12/20 13:38:35;;;;;;;1999.90;999.90;;;;;;;1.15;100.00;162705.56;5051017;28;20060;-67
2021/12/20 13:41:11;;;;;;;1999.90;999.90;;;;;;;1.35;100.00;162757.56;5047937;28;20045;-67
2021/12/20 13:43:42;;;;;;;1999.90;999.90;;;;;;;1.40;100.00;162772.63;5045735;28;20045;-67
2021/12/20 13:46:17;;;;;;;1999.90;999.90;;;;;;;1.11;100.00;162693.25;5054373;28;20057;-67
2021/12/20 13:48:50;;;;;;;1999.90;999.90;;;;;;;1.18;100.00;162713.78;5040665;28;20292;-68
2021/12/20 13:51:18;;;;;;;1999.90;999.90;;;;;;;1.38;100.00;162767.13;5040620;28;20061;-68
2021/12/20 13:53:45;;;;;;;1999.90;999.90;;;;;;;1.25;100.00;162731.59;5044405;28;20077;-68
2021/12/20 13:56:12;;;;;;;1999.90;999.90;;;;;;;1.29;100.00;162742.50;5055249;28;20053;-68
2021/12/20 13:58:40;;;;;;;1999.90;999.90;;;;;;;1.33;100.00;162753.44;5041243;28;20045;-68
2021/12/20 14:01:07;;;;;;;1999.90;999.90;;;;;;;1.29;100.00;162742.50;5052008;28;20126;-68
2021/12/20 14:03:38;;;;;;;1999.90;999.90;;;;;;;1.74;100.00;162862.97;5036971;28;20084;-68
2021/12/20 14:06:04;;;;;;;1999.90;999.90;;;;;;;1.94;100.00;162914.97;5037695;28;20045;-68
2021/12/20 14:08:31;;;;;;;1999.90;999.90;;;;;;;1.74;100.00;162862.97;5052158;28;20548;-68
2021/12/20 14:10:58;;;;;;;1999.90;999.90;;;;;;;1.82;100.00;162882.13;5045717;28;20053;-68
2021/12/20 14:13:28;;;;;;;1999.90;999.90;;;;;;;1.64;100.00;162835.59;5045769;28;20083;-69
2021/12/20 14:16:02;;;;;;;1999.90;999.90;;;;;;;1.42;100.00;162776.72;5045593;28;20113;-69
2021/12/20 14:18:33;;;;;;;1999.90;999.90;;;;;;;1.20;100.00;162719.22;5057472;28;20055;-68
2021/12/20 14:21:05;;;;;;;1999.90;999.90;;;;;;;1.00;100.00;162665.88;5041137;28;20507;-68
2021/12/20 14:23:41;;;;;;;1999.90;999.90;;;;;;;1.36;100.00;162761.66;5046396;28;20103;-69
2021/12/20 14:26:21;;;;;;;1999.90;999.90;;;;;;;1.59;100.00;162821.88;5046870;28;20442;-68
2021/12/20 14:28:50;;;;;;;1999.90;999.90;;;;;;;1.55;100.00;162812.31;5037163;28;20468;-69
2021/12/20 14:31:30;;;;;;;1999.90;999.90;;;;;;;1.14;100.00;162702.81;5039792;28;20358;-68
2021/12/20 14:33:58;;;;;;;1999.90;999.90;;;;;;;1.04;100.00;162676.84;5041060;28;20044;-68
2021/12/20 14:36:31;;;;;;;1999.90;999.90;;;;;;;0.98;100.00;162660.44;5036992;28;20084;-68
2021/12/20 14:39:11;;;;;;;1999.90;999.90;;;;;;;1.26;100.00;162732.94;5037087;28;20328;-69
2021/12/20 14:41:39;;;;;;;1999.90;999.90;;;;;;;1.45;100.00;162783.59;5044955;28;20134;-67
2021/12/20 14:44:17;;;;;;;1999.90;999.90;;;;;;;1.55;100.00;162810.94;5047881;28;20049;-66
2021/12/20 14:46:55;;;;;;;1999.90;999.90;;;;;;;1.08;100.00;162686.41;5039951;28;20077;-67
2021/12/20 14:49:30;;;;;;;1999.90;999.90;;;;;;;1.42;100.00;162775.38;5041344;28;20091;-66
2021/12/20 14:52:11;;;;;;;1999.90;999.90;;;;;;;0.92;100.00;162643.97;5046603;28;20053;-66
2021/12/20 14:54:46;;;;;;;1999.90;999.90;;;;;;;1.13;100.00;162700.13;5047115;28;20085;-66
2021/12/20 14:57:19;;;;;;;1999.90;999.90;;;;;;;1.01;100.00;162668.63;5043792;28;20056;-66
2021/12/20 14:59:47;;;;;;;1999.90;999.90;;;;;;;1.16;100.00;162706.91;5040579;28;20492;-67
2021/12/20 15:02:17;;;;;;;1999.90;999.90;;;;;;;1.21;100.00;162720.63;5045726;28;20107;-67
2021/12/20 15:04:44;;;;;;;1999.90;999.90;;;;;;;1.12;100.00;162697.34;5040006;28;20045;-68
2021/12/20 15:07:13;;;;;;;1999.90;999.90;;;;;;;1.20;100.00;162719.22;5039787;28;20388;-68
2021/12/20 15:09:39;;;;;;;1999.90;999.90;;;;;;;1.37;100.00;162764.41;5045060;28;20087;-67
2021/12/20 15:12:07;;;;;;;1999.90;999.90;;;;;;;1.43;100.00;162778.06;5046422;28;20468;-68
2021/12/20 15:14:33;;;;;;;1999.90;999.90;;;;;;;1.34;100.00;162754.81;5041523;28;20072;-67
2021/12/20 15:17:00;;;;;;;1999.90;999.90;;;;;;;0.98;100.00;162660.44;5055204;28;20090;-68
2021/12/20 15:19:26;;;;;;;1999.90;999.90;;;;;;;1.40;100.00;162771.25;5037793;28;20508;-67
2021/12/20 15:21:53;;;;;;;1999.90;999.90;;;;;;;1.25;100.00;162730.19;5042384;28;20086;-68
2021/12/20 15:24:20;;;;;;;1999.90;999.90;;;;;;;1.04;100.00;162676.84;5053723;28;20490;-68
2021/12/20 15:26:48;;;;;;;1999.90;999.90;;;;;;;0.87;100.00;162631.66;5042552;28;21596;-68
2021/12/20 15:29:15;;;;;;;1999.90;999.90;;;;;;;0.72;100.00;162590.66;5042563;28;20563;-68
2021/12/20 15:31:43;;;;;;;1999.90;999.90;;;;;;;1.10;100.00;162690.50;5051886;28;20043;-68
2021/12/20 15:34:11;;;;;;;1999.90;999.90;;;;;;;1.84;100.00;162887.59;5042026;28;20055;-70
2021/12/20 15:36:38;;;;;;;1999.90;999.90;;;;;;;1.28;100.00;162738.38;5043767;28;20048;-67
2021/12/20 15:39:07;;;;;;;1999.90;999.90;;;;;;;1.35;100.00;162757.56;5045733;28;20320;-68
2021/12/20 15:41:34;;;;;;;1999.90;999.90;;;;;;;1.29;100.00;162742.50;5046936;28;20080;-67
2021/12/20 15:44:01;;;;;;;1999.90;999.90;;;;;;;1.62;100.00;162830.06;5043852;28;20118;-68
2021/12/20 15:46:29;;;;;;;1999.90;999.90;;;;;;;1.51;100.00;162801.34;5046857;28;20077;-67
2021/12/20 15:48:56;;;;;;;1999.90;999.90;;;;;;;0.99;100.00;162663.13;5044918;28;20091;-67
2021/12/20 15:51:24;;;;;;;1999.90;999.90;;;;;;;0.68;100.00;162581.03;5050233;28;20080;-67
2021/12/20 15:53:51;;;;;;;1999.90;999.90;;;;;;;0.98;100.00;162660.44;5056605;28;20090;-67